createdAt,value
2022-12-08T00:02:04.838Z,3.20
2022-12-08T00:04:54.374Z,3.20
2022-12-08T00:07:51.974Z,3.20
2022-12-08T00:10:47.881Z,3.20
2022-12-08T00:13:08.693Z,3.10
2022-12-08T00:15:38.278Z,3.10
2022-12-08T00:18:07.112Z,3.10
2022-12-08T00:20:37.455Z,3.10
2022-12-08T00:23:05.789Z,3.10
2022-12-08T00:25:37.378Z,3.10
2022-12-08T00:28:06.094Z,3.00
2022-12-08T00:30:34.328Z,3.00
2022-12-08T00:33:04.106Z,3.00
2022-12-08T00:35:32.445Z,3.00
2022-12-08T00:38:01.183Z,3.00
2022-12-08T00:40:29.893Z,3.00
2022-12-08T00:42:58.280Z,3.00
2022-12-08T00:45:26.424Z,3.00
2022-12-08T00:47:55.033Z,2.90
2022-12-08T00:50:24.652Z,2.90
2022-12-08T00:52:52.814Z,2.90
2022-12-08T00:55:21.353Z,2.90
2022-12-08T00:57:49.721Z,2.90
2022-12-08T01:00:18.388Z,2.90
2022-12-08T01:02:46.899Z,2.90
2022-12-08T01:05:15.457Z,2.90
2022-12-08T01:07:44.995Z,2.80
2022-12-08T01:10:13.492Z,2.90
2022-12-08T01:12:41.900Z,2.80
2022-12-08T01:15:10.926Z,2.80
2022-12-08T01:17:39.591Z,2.80
2022-12-08T01:20:09.083Z,2.80
2022-12-08T01:22:37.288Z,2.80
2022-12-08T01:25:07.452Z,2.80
2022-12-08T01:27:35.924Z,2.70
2022-12-08T01:30:04.705Z,2.70
2022-12-08T01:32:33.339Z,2.70
2022-12-08T01:35:01.850Z,2.70
2022-12-08T01:37:31.121Z,2.70
2022-12-08T01:39:59.408Z,2.70
2022-12-08T01:42:30.210Z,2.80
2022-12-08T01:45:02.973Z,2.80
2022-12-08T01:47:37.578Z,2.80
2022-12-08T01:50:09.572Z,2.80
2022-12-08T01:52:41.354Z,2.80
2022-12-08T01:55:14.875Z,2.80
2022-12-08T01:57:47.503Z,2.80
2022-12-08T02:00:18.894Z,2.80
2022-12-08T02:02:55.928Z,2.90
2022-12-08T02:05:26.705Z,2.90
2022-12-08T02:07:56.798Z,2.90
2022-12-08T02:10:28.404Z,2.90
2022-12-08T02:12:59.895Z,3.00
2022-12-08T02:15:37.009Z,3.00
2022-12-08T02:18:26.561Z,3.00
2022-12-08T02:20:58.722Z,3.00
2022-12-08T02:23:37.795Z,3.00
2022-12-08T02:26:47.700Z,3.00
2022-12-08T02:29:46.295Z,3.00
2022-12-08T02:32:36.050Z,3.10
2022-12-08T02:35:11.917Z,3.10
2022-12-08T02:37:47.140Z,3.10
2022-12-08T02:40:23.422Z,3.20
2022-12-08T02:42:58.708Z,3.20
2022-12-08T02:45:29.799Z,3.10
2022-12-08T02:47:59.809Z,3.10
2022-12-08T02:50:29.799Z,3.10
2022-12-08T02:52:58.541Z,3.00
2022-12-08T02:55:29.261Z,3.00
2022-12-08T02:58:18.936Z,2.90
2022-12-08T03:01:02.941Z,2.80
2022-12-08T03:03:42.387Z,2.80
2022-12-08T03:06:21.869Z,2.70
2022-12-08T03:08:55.802Z,2.70
2022-12-08T03:11:29.576Z,2.60
2022-12-08T03:14:01.571Z,2.50
2022-12-08T03:16:35.938Z,2.40
2022-12-08T03:19:08.924Z,2.40
2022-12-08T03:21:42.539Z,2.30
2022-12-08T03:24:13.706Z,2.40
2022-12-08T03:26:48.024Z,2.40
2022-12-08T03:29:16.952Z,2.40
2022-12-08T03:31:51.458Z,2.30
2022-12-08T03:34:23.215Z,2.40
2022-12-08T03:36:52.867Z,2.40
2022-12-08T03:39:21.311Z,2.30
2022-12-08T03:41:49.594Z,2.30
2022-12-08T03:44:17.970Z,2.30
2022-12-08T03:46:46.646Z,2.30
2022-12-08T03:49:15.008Z,2.40
2022-12-08T03:51:43.504Z,2.40
2022-12-08T03:54:13.087Z,2.50
2022-12-08T03:56:41.565Z,2.50
2022-12-08T03:59:11.427Z,2.50
2022-12-08T04:01:39.699Z,2.40
2022-12-08T04:04:08.004Z,2.40
2022-12-08T04:06:36.279Z,2.40
2022-12-08T04:09:04.690Z,2.40
2022-12-08T04:11:34.453Z,2.40
2022-12-08T04:14:02.967Z,2.40
2022-12-08T04:16:31.200Z,2.40
2022-12-08T04:18:59.465Z,2.40
2022-12-08T04:21:30.237Z,2.50
2022-12-08T04:24:01.297Z,2.50
2022-12-08T04:26:30.272Z,2.50
2022-12-08T04:28:59.836Z,2.50
2022-12-08T04:31:28.058Z,2.50
2022-12-08T04:33:56.567Z,2.50
2022-12-08T04:36:24.705Z,2.50
2022-12-08T04:38:52.871Z,2.50
2022-12-08T04:41:21.624Z,2.50
2022-12-08T04:43:49.813Z,2.50
2022-12-08T04:46:19.514Z,2.50
2022-12-08T04:48:47.942Z,2.50
2022-12-08T04:51:18.461Z,2.50
2022-12-08T04:53:47.538Z,2.50
2022-12-08T04:56:16.856Z,2.40
2022-12-08T04:58:45.152Z,2.40
2022-12-08T05:01:13.821Z,2.40
2022-12-08T05:03:43.907Z,2.40
2022-12-08T05:06:14.525Z,2.40
2022-12-08T05:08:43.172Z,2.40
2022-12-08T05:11:13.334Z,2.40
2022-12-08T05:13:41.974Z,2.40
2022-12-08T05:16:12.071Z,2.30
2022-12-08T05:18:41.681Z,2.30
2022-12-08T05:21:12.000Z,2.30
2022-12-08T05:23:40.222Z,2.30
2022-12-08T05:26:08.622Z,2.30
2022-12-08T05:28:41.947Z,2.30
2022-12-08T05:31:11.594Z,2.30
2022-12-08T05:33:40.584Z,2.30
2022-12-08T05:36:10.867Z,2.40
2022-12-08T05:38:39.356Z,2.40
2022-12-08T05:41:08.453Z,2.40
2022-12-08T05:43:37.310Z,2.40
2022-12-08T05:46:06.306Z,2.40
2022-12-08T05:48:34.906Z,2.40
2022-12-08T05:51:03.519Z,2.50
2022-12-08T05:53:33.237Z,2.50
2022-12-08T05:56:01.369Z,2.50
2022-12-08T05:58:29.593Z,2.60
2022-12-08T06:00:57.890Z,2.60
2022-12-08T06:03:26.940Z,2.60
2022-12-08T06:05:55.192Z,2.70
2022-12-08T06:08:25.963Z,2.70
2022-12-08T06:10:55.651Z,2.70
2022-12-08T06:13:24.008Z,2.70
2022-12-08T06:15:52.402Z,2.70
2022-12-08T06:18:20.614Z,2.70
2022-12-08T06:20:48.979Z,2.80
2022-12-08T06:23:17.420Z,2.80
2022-12-08T06:25:45.658Z,2.80
2022-12-08T06:28:15.156Z,2.80
2022-12-08T06:30:43.495Z,2.80
2022-12-08T06:33:11.619Z,2.90
2022-12-08T06:35:39.854Z,2.90
2022-12-08T06:38:08.374Z,2.90
2022-12-08T06:40:36.608Z,3.00
2022-12-08T06:43:05.147Z,3.00
2022-12-08T06:45:34.818Z,3.10
2022-12-08T06:48:04.081Z,3.10
2022-12-08T06:50:33.414Z,3.10
2022-12-08T06:53:05.393Z,3.10
2022-12-08T06:55:58.892Z,3.10
2022-12-08T06:58:24.951Z,3.20
2022-12-08T07:00:55.133Z,3.10
2022-12-08T07:03:23.381Z,3.20
2022-12-08T07:05:51.803Z,3.10
2022-12-08T07:08:20.311Z,3.10
2022-12-08T07:10:48.505Z,3.10
2022-12-08T07:13:17.050Z,3.10
2022-12-08T07:15:45.371Z,3.20
2022-12-08T07:18:14.918Z,3.20
2022-12-08T07:20:43.217Z,3.20
2022-12-08T07:23:11.538Z,3.20
2022-12-08T07:25:41.648Z,3.20
2022-12-08T07:28:11.605Z,3.20
2022-12-08T07:30:40.261Z,3.20
2022-12-08T07:33:08.495Z,3.20
2022-12-08T07:35:38.084Z,3.20
2022-12-08T07:38:06.354Z,3.20
2022-12-08T07:40:34.930Z,3.20
2022-12-08T07:43:03.335Z,3.20
2022-12-08T07:45:32.039Z,3.20
2022-12-08T07:48:00.647Z,3.20
2022-12-08T07:50:29.247Z,3.20
2022-12-08T07:52:58.910Z,3.20
2022-12-08T07:55:27.386Z,3.20
2022-12-08T07:57:56.095Z,3.30
2022-12-08T08:00:24.762Z,3.20
2022-12-08T08:02:53.301Z,3.20
2022-12-08T08:05:22.090Z,3.20
2022-12-08T08:07:50.700Z,3.20
2022-12-08T08:10:22.819Z,3.20
2022-12-08T08:12:51.285Z,3.20
2022-12-08T08:15:21.187Z,3.20
2022-12-08T08:17:51.912Z,3.20
2022-12-08T08:20:21.159Z,3.30
2022-12-08T08:22:53.409Z,3.20
2022-12-08T08:25:23.934Z,3.30
2022-12-08T08:27:52.371Z,3.30
2022-12-08T08:30:21.224Z,3.30
2022-12-08T08:32:50.779Z,3.30
2022-12-08T08:35:19.115Z,3.20
2022-12-08T08:37:49.237Z,3.20
2022-12-08T08:40:18.204Z,3.20
2022-12-08T08:42:47.758Z,3.30
2022-12-08T08:45:16.010Z,3.30
2022-12-08T08:47:45.181Z,3.40
2022-12-08T08:50:13.436Z,3.30
2022-12-08T08:52:41.730Z,3.40
2022-12-08T08:55:10.644Z,3.40
2022-12-08T08:57:38.830Z,3.40
2022-12-08T09:00:10.761Z,3.40
2022-12-08T09:02:39.765Z,3.40
2022-12-08T09:05:08.939Z,3.40
2022-12-08T09:07:37.361Z,3.40
2022-12-08T09:10:06.915Z,3.40
2022-12-08T09:12:35.348Z,3.40
2022-12-08T09:15:03.584Z,3.40
2022-12-08T09:17:33.547Z,3.40
2022-12-08T09:20:02.937Z,3.40
2022-12-08T09:22:31.698Z,3.40
2022-12-08T09:25:00.180Z,3.50
2022-12-08T09:27:28.574Z,3.60
2022-12-08T09:29:56.799Z,3.60
2022-12-08T09:32:25.211Z,3.60
2022-12-08T09:34:55.513Z,3.60
2022-12-08T09:37:23.837Z,3.70
2022-12-08T09:39:52.234Z,3.70
2022-12-08T09:42:29.811Z,3.90
2022-12-08T09:45:05.072Z,4.10
2022-12-08T09:47:38.700Z,4.40
2022-12-08T09:50:16.954Z,4.50
2022-12-08T09:52:48.616Z,4.70
2022-12-08T09:55:23.663Z,5.00
2022-12-08T09:57:58.852Z,5.30
2022-12-08T10:00:27.564Z,5.60
2022-12-08T10:02:57.328Z,5.90
2022-12-08T10:05:29.460Z,6.10
2022-12-08T10:08:07.301Z,6.10
2022-12-08T10:10:43.359Z,6.20
2022-12-08T10:13:21.857Z,6.40
2022-12-08T10:15:58.843Z,6.60
2022-12-08T10:18:30.453Z,6.70
2022-12-08T10:21:14.860Z,6.80
2022-12-08T10:23:45.885Z,7.00
2022-12-08T10:26:16.988Z,7.20
2022-12-08T10:28:45.910Z,7.50
2022-12-08T10:31:21.712Z,7.70
2022-12-08T10:33:57.788Z,7.80
2022-12-08T10:36:46.099Z,7.90
2022-12-08T10:39:45.561Z,8.00
2022-12-08T10:42:22.424Z,7.90
2022-12-08T10:44:59.269Z,7.60
2022-12-08T10:47:29.326Z,7.30
2022-12-08T10:50:20.365Z,7.10
2022-12-08T10:52:57.246Z,6.80
2022-12-08T10:55:25.830Z,6.50
2022-12-08T10:57:54.108Z,6.30
2022-12-08T11:00:24.794Z,6.20
2022-12-08T11:03:21.489Z,6.10
2022-12-08T11:05:50.313Z,6.00
2022-12-08T11:08:20.366Z,6.00
2022-12-08T11:10:49.070Z,6.00
2022-12-08T11:13:26.429Z,5.90
2022-12-08T11:15:56.402Z,5.80
2022-12-08T11:18:29.413Z,5.90
2022-12-08T11:21:01.170Z,5.90
2022-12-08T11:23:32.069Z,5.90
2022-12-08T11:26:08.503Z,5.90
2022-12-08T11:28:39.143Z,6.00
2022-12-08T11:31:18.569Z,6.00
2022-12-08T11:33:48.696Z,6.10
2022-12-08T11:36:17.395Z,6.00
2022-12-08T11:38:51.268Z,6.00
2022-12-08T11:41:23.390Z,6.00
2022-12-08T11:43:57.695Z,6.00
2022-12-08T11:46:29.877Z,6.00
2022-12-08T11:49:06.442Z,6.10
2022-12-08T11:51:38.117Z,6.00
2022-12-08T11:54:20.532Z,6.00
2022-12-08T11:56:51.205Z,5.90
2022-12-08T11:59:28.044Z,6.10
2022-12-08T12:01:56.834Z,6.30
2022-12-08T12:04:30.980Z,6.50
2022-12-08T12:07:32.091Z,6.60
2022-12-08T12:10:22.063Z,6.60
2022-12-08T12:13:09.766Z,6.60
2022-12-08T12:16:06.518Z,6.70
2022-12-08T12:18:40.301Z,6.80
2022-12-08T12:21:13.537Z,6.70
2022-12-08T12:23:45.672Z,6.70
2022-12-08T12:26:22.595Z,6.70
2022-12-08T12:28:54.860Z,6.70
2022-12-08T12:31:27.089Z,6.80
2022-12-08T12:34:04.588Z,6.80
2022-12-08T12:36:33.736Z,6.80
2022-12-08T12:39:04.114Z,6.90
2022-12-08T12:41:43.370Z,7.00
2022-12-08T12:44:38.992Z,7.00
2022-12-08T12:47:12.701Z,7.10
2022-12-08T12:50:16.540Z,7.20
2022-12-08T12:52:49.705Z,7.40
2022-12-08T12:55:23.114Z,7.60
2022-12-08T12:57:55.311Z,7.80
2022-12-08T13:00:25.041Z,7.60
2022-12-08T13:02:54.451Z,7.50
2022-12-08T13:05:26.755Z,7.30
2022-12-08T13:07:58.013Z,7.20
2022-12-08T13:10:30.674Z,7.10
2022-12-08T13:13:17.432Z,6.90
2022-12-08T13:15:52.596Z,6.80
2022-12-08T13:18:22.901Z,6.70
2022-12-08T13:20:54.789Z,6.60
2022-12-08T13:23:30.446Z,6.60
2022-12-08T13:26:20.965Z,6.40
2022-12-08T13:29:18.311Z,6.40
2022-12-08T13:31:51.130Z,6.10
2022-12-08T13:34:39.262Z,5.90
2022-12-08T13:37:21.987Z,5.70
2022-12-08T13:39:55.969Z,5.30
2022-12-08T13:42:31.859Z,5.10
2022-12-08T13:45:48.787Z,4.90
2022-12-08T13:48:27.030Z,4.90
2022-12-08T13:54:46.323Z,4.80
2022-12-08T13:59:30.601Z,4.70
2022-12-08T14:02:04.843Z,4.70
2022-12-08T14:05:09.328Z,4.60
2022-12-08T14:07:24.979Z,4.60
2022-12-08T14:09:54.468Z,4.50
2022-12-08T14:12:25.954Z,4.40
2022-12-08T14:15:04.076Z,4.40
2022-12-08T14:17:35.354Z,4.30
2022-12-08T14:20:24.705Z,4.20
2022-12-08T14:22:53.883Z,4.10
2022-12-08T14:25:24.105Z,4.10
2022-12-08T14:27:59.150Z,4.10
2022-12-08T14:30:31.797Z,4.10
2022-12-08T14:33:03.336Z,4.00
2022-12-08T14:35:33.701Z,4.00
2022-12-08T14:38:03.302Z,3.90
2022-12-08T14:40:35.508Z,3.80
2022-12-08T14:43:16.697Z,3.80
2022-12-08T14:45:50.928Z,3.80
2022-12-08T14:48:26.660Z,3.70
2022-12-08T14:51:02.677Z,3.70
2022-12-08T14:53:38.581Z,3.70
2022-12-08T14:56:20.733Z,3.60
2022-12-08T14:58:51.178Z,3.60
2022-12-08T15:01:24.699Z,3.60
2022-12-08T15:03:55.584Z,3.60
2022-12-08T15:06:24.265Z,3.60
2022-12-08T15:08:55.791Z,3.60
2022-12-08T15:11:35.914Z,3.60
2022-12-08T15:14:05.079Z,3.50
2022-12-08T15:16:39.967Z,3.50
2022-12-08T15:19:23.544Z,3.50
2022-12-08T15:21:52.290Z,3.50
2022-12-08T15:24:23.820Z,3.50
2022-12-08T15:26:53.182Z,3.50
2022-12-08T15:29:24.011Z,3.40
2022-12-08T15:31:54.781Z,3.40
2022-12-08T15:34:24.520Z,3.40
2022-12-08T15:36:55.458Z,3.40
2022-12-08T15:39:33.731Z,3.40
2022-12-08T15:42:03.226Z,3.40
2022-12-08T15:44:32.922Z,3.30
2022-12-08T15:47:01.936Z,3.30
2022-12-08T15:49:31.939Z,3.20
2022-12-08T15:52:10.719Z,3.20
2022-12-08T15:54:40.169Z,3.20
2022-12-08T15:57:20.481Z,3.10
2022-12-08T15:59:59.024Z,3.10
2022-12-08T16:02:34.375Z,3.00
2022-12-08T16:08:30.115Z,2.90
2022-12-08T16:12:03.734Z,2.90
2022-12-08T16:14:33.603Z,2.80
2022-12-08T16:16:51.256Z,2.70
2022-12-08T16:19:19.579Z,2.70
2022-12-08T16:22:37.071Z,2.60
2022-12-08T16:24:38.014Z,2.60
2022-12-08T16:29:54.879Z,2.50
2022-12-08T16:32:23.205Z,2.40
2022-12-08T16:34:51.846Z,2.30
2022-12-08T16:37:23.810Z,2.20
2022-12-08T16:39:52.927Z,2.20
2022-12-08T16:42:44.151Z,2.10
2022-12-08T16:45:14.170Z,2.00
2022-12-08T16:47:47.054Z,2.00
2022-12-08T16:50:17.357Z,1.90
2022-12-08T16:52:48.017Z,1.90
2022-12-08T16:55:18.746Z,1.90
2022-12-08T16:57:48.149Z,1.90
2022-12-08T17:00:19.600Z,1.80
2022-12-08T17:03:10.048Z,1.80
2022-12-08T17:05:42.005Z,1.70
2022-12-08T17:08:13.278Z,1.70
2022-12-08T17:10:42.668Z,1.70
2022-12-08T17:13:13.042Z,1.70
2022-12-08T17:15:43.506Z,1.70
2022-12-08T17:18:12.360Z,1.60
2022-12-08T17:20:40.977Z,1.60
2022-12-08T17:23:09.533Z,1.60
2022-12-08T17:25:39.513Z,1.50
2022-12-08T17:28:07.799Z,1.50
2022-12-08T17:30:36.034Z,1.50
2022-12-08T17:33:04.714Z,1.40
2022-12-08T17:35:33.073Z,1.40
2022-12-08T17:38:01.318Z,1.30
2022-12-08T17:40:29.694Z,1.30
2022-12-08T17:42:59.373Z,1.30
2022-12-08T17:45:27.791Z,1.20
2022-12-08T17:47:58.514Z,1.10
2022-12-08T17:50:26.780Z,1.10
2022-12-08T17:52:55.095Z,1.10
2022-12-08T17:55:23.419Z,1.10
2022-12-08T17:57:51.633Z,1.10
2022-12-08T18:00:21.936Z,1.20
2022-12-08T18:02:50.601Z,1.20
2022-12-08T18:05:19.525Z,1.10
2022-12-08T18:07:48.125Z,1.10
2022-12-08T18:10:16.903Z,1.20
2022-12-08T18:12:45.535Z,1.20
2022-12-08T18:15:17.449Z,1.10
2022-12-08T18:17:47.335Z,1.10
2022-12-08T18:20:15.854Z,1.20
2022-12-08T18:22:44.621Z,1.10
2022-12-08T18:25:14.313Z,1.10
2022-12-08T18:27:43.303Z,1.00
2022-12-08T18:30:16.542Z,1.10
2022-12-08T18:32:46.241Z,1.00
2022-12-08T18:35:14.690Z,1.00
2022-12-08T18:37:44.216Z,0.90
2022-12-08T18:40:15.472Z,0.80
2022-12-08T18:42:44.228Z,0.80
2022-12-08T18:45:15.707Z,0.80
2022-12-08T18:47:47.581Z,0.80
2022-12-08T18:50:16.337Z,0.80
2022-12-08T18:52:45.432Z,0.80
2022-12-08T18:55:14.572Z,0.80
2022-12-08T18:57:43.940Z,0.70
2022-12-08T19:00:15.579Z,0.80
2022-12-08T19:02:44.395Z,0.80
2022-12-08T19:05:17.140Z,0.80
2022-12-08T19:07:46.923Z,0.90
2022-12-08T19:10:15.154Z,0.90
2022-12-08T19:12:45.610Z,1.00
2022-12-08T19:15:14.752Z,1.00
2022-12-08T19:17:42.948Z,1.10
2022-12-08T19:20:14.543Z,1.20
2022-12-08T19:22:43.091Z,1.30
2022-12-08T19:25:11.333Z,1.40
2022-12-08T19:27:39.528Z,1.40
2022-12-08T19:30:09.559Z,1.50
2022-12-08T19:32:40.674Z,1.50
2022-12-08T19:35:09.590Z,1.50
2022-12-08T19:37:39.628Z,1.50
2022-12-08T19:40:26.434Z,1.50
2022-12-08T19:43:12.003Z,1.60
2022-12-08T19:45:40.361Z,1.60
2022-12-08T19:48:09.103Z,1.60
2022-12-08T19:50:37.537Z,1.60
2022-12-08T19:53:09.084Z,1.60
2022-12-08T19:55:38.754Z,1.60
2022-12-08T19:58:08.415Z,1.60
2022-12-08T20:00:39.902Z,1.50
2022-12-08T20:03:09.168Z,1.50
2022-12-08T20:05:38.440Z,1.40
2022-12-08T20:08:08.303Z,1.40
2022-12-08T20:10:38.980Z,1.40
2022-12-08T20:13:24.830Z,1.50
2022-12-08T20:15:54.199Z,1.50
2022-12-08T20:18:22.872Z,1.50
2022-12-08T20:21:16.621Z,1.50
2022-12-08T20:23:48.679Z,1.50
2022-12-08T20:26:19.185Z,1.40
2022-12-08T20:28:47.591Z,1.40
2022-12-08T20:31:20.206Z,1.40
2022-12-08T20:33:49.062Z,1.30
2022-12-08T20:36:21.662Z,1.30
2022-12-08T20:38:53.408Z,1.20
2022-12-08T20:41:23.272Z,1.10
2022-12-08T20:43:52.112Z,1.00
2022-12-08T20:46:21.887Z,1.00
2022-12-08T20:48:50.113Z,1.00
2022-12-08T20:51:22.334Z,1.00
2022-12-08T20:53:53.448Z,1.00
2022-12-08T20:56:24.499Z,0.90
2022-12-08T20:58:54.096Z,0.90
2022-12-08T21:01:24.547Z,0.90
2022-12-08T21:03:53.547Z,0.90
2022-12-08T21:06:23.627Z,0.80
2022-12-08T21:08:54.076Z,0.80
2022-12-08T21:11:22.520Z,0.80
2022-12-08T21:13:51.501Z,0.80
2022-12-08T21:16:20.377Z,0.80
2022-12-08T21:18:48.709Z,0.90
2022-12-08T21:21:17.885Z,0.80
2022-12-08T21:23:47.019Z,0.90
2022-12-08T21:26:18.705Z,0.90
2022-12-08T21:28:47.897Z,0.90
2022-12-08T21:31:18.405Z,1.00
2022-12-08T21:33:47.910Z,1.00
2022-12-08T21:36:19.395Z,1.10
2022-12-08T21:38:48.696Z,1.10
2022-12-08T21:41:42.009Z,1.10
2022-12-08T21:44:12.691Z,1.20
2022-12-08T21:46:41.112Z,1.20
2022-12-08T21:49:09.887Z,1.20
2022-12-08T21:51:42.383Z,1.20
2022-12-08T21:54:18.331Z,1.20
2022-12-08T21:56:50.074Z,1.20
2022-12-08T21:59:19.809Z,1.20
2022-12-08T22:01:48.437Z,1.30
2022-12-08T22:04:19.439Z,1.30
2022-12-08T22:06:48.396Z,1.30
2022-12-08T22:09:17.128Z,1.30
2022-12-08T22:11:45.967Z,1.30
2022-12-08T22:14:15.911Z,1.30
2022-12-08T22:16:44.546Z,1.40
2022-12-08T22:19:13.576Z,1.40
2022-12-08T22:21:42.370Z,1.40
2022-12-08T22:24:11.073Z,1.40
2022-12-08T22:26:39.359Z,1.40
2022-12-08T22:29:08.170Z,1.40
2022-12-08T22:31:38.322Z,1.40
2022-12-08T22:34:06.853Z,1.50
2022-12-08T22:36:35.265Z,1.50
2022-12-08T22:39:04.188Z,1.50
2022-12-08T22:41:32.946Z,1.50
2022-12-08T22:44:01.532Z,1.40
2022-12-08T22:46:29.937Z,1.40
2022-12-08T22:48:59.686Z,1.40
2022-12-08T22:51:28.179Z,1.40
2022-12-08T22:53:58.740Z,1.30
2022-12-08T22:56:27.306Z,1.30
2022-12-08T22:58:55.806Z,1.30
2022-12-08T23:01:26.353Z,1.30
2022-12-08T23:03:55.027Z,1.30
2022-12-08T23:06:25.682Z,1.30
2022-12-08T23:08:54.245Z,1.40
2022-12-08T23:11:24.980Z,1.40
2022-12-08T23:13:53.670Z,1.40
2022-12-08T23:16:21.978Z,1.40
2022-12-08T23:18:51.188Z,1.40
2022-12-08T23:21:21.103Z,1.50
2022-12-08T23:23:50.968Z,1.40
2022-12-08T23:26:21.955Z,1.40
2022-12-08T23:28:50.564Z,1.40
2022-12-08T23:31:20.090Z,1.30
2022-12-08T23:33:48.733Z,1.20
2022-12-08T23:36:18.897Z,1.30
2022-12-08T23:38:47.665Z,1.30
2022-12-08T23:41:18.406Z,1.30
2022-12-08T23:43:48.131Z,1.20
2022-12-08T23:46:18.445Z,1.20
2022-12-08T23:48:47.413Z,1.10
2022-12-08T23:51:15.929Z,1.00
2022-12-08T23:53:44.682Z,0.90
2022-12-08T23:56:15.790Z,0.80
2022-12-08T23:58:46.487Z,0.80
